createdAt,value
2018-06-04T00:02:26.211Z,101581.23
2018-06-04T00:04:55.643Z,101582.09
2018-06-04T00:07:23.958Z,101581.34
2018-06-04T00:09:52.282Z,101581.38
2018-06-04T00:12:20.566Z,101576.08
2018-06-04T00:14:48.850Z,101572.34
2018-06-04T00:17:17.162Z,101569.95
2018-06-04T00:19:46.413Z,101562.66
2018-06-04T00:22:14.726Z,101567.47
2018-06-04T00:24:42.977Z,101555.79
2018-06-04T00:27:11.302Z,101558.95
2018-06-04T00:29:39.559Z,101554.45
2018-06-04T00:32:08.846Z,101553.45
2018-06-04T00:34:37.113Z,101547.48
2018-06-04T00:37:05.502Z,101556.20
2018-06-04T00:39:33.949Z,101556.86
2018-06-04T00:42:02.204Z,101552.55
2018-06-04T00:44:30.489Z,101562.66
2018-06-04T00:46:58.788Z,101553.97
2018-06-04T00:49:27.065Z,101555.14
2018-06-04T00:51:55.311Z,101556.22
2018-06-04T00:54:23.595Z,101554.44
2018-06-04T00:56:52.339Z,101552.03
2018-06-04T00:59:20.609Z,101556.77
2018-06-04T01:01:48.875Z,101551.33
2018-06-04T01:04:17.141Z,101551.73
2018-06-04T01:06:45.398Z,101551.70
2018-06-04T01:09:13.703Z,101552.90
2018-06-04T01:11:41.970Z,101550.45
2018-06-04T01:14:10.249Z,101547.78
2018-06-04T01:16:38.510Z,101534.31
2018-06-04T01:19:07.030Z,101539.20
2018-06-04T01:21:35.281Z,101546.97
2018-06-04T01:24:03.522Z,101544.09
2018-06-04T01:26:31.808Z,101541.06
2018-06-04T01:29:00.098Z,101536.21
2018-06-04T01:31:28.373Z,101528.22
2018-06-04T01:33:56.629Z,101526.95
2018-06-04T01:36:24.909Z,101527.01
2018-06-04T01:38:53.168Z,101526.53
2018-06-04T01:41:21.448Z,101525.44
2018-06-04T01:43:49.696Z,101523.34
2018-06-04T01:46:17.965Z,101524.97
2018-06-04T01:48:46.210Z,101529.56
2018-06-04T01:51:14.504Z,101519.54
2018-06-04T01:53:42.858Z,101516.91
2018-06-04T01:56:11.158Z,101517.66
2018-06-04T01:58:39.410Z,101518.25
2018-06-04T02:01:07.686Z,101510.23
2018-06-04T02:03:35.943Z,101513.17
2018-06-04T02:06:04.228Z,101512.44
2018-06-04T02:08:32.481Z,101510.16
2018-06-04T02:11:01.114Z,101511.73
2018-06-04T02:13:29.365Z,101515.50
2018-06-04T02:15:57.614Z,101515.20
2018-06-04T02:18:25.905Z,101517.39
2018-06-04T02:20:54.154Z,101507.58
2018-06-04T02:23:22.429Z,101510.14
2018-06-04T02:25:50.749Z,101508.69
2018-06-04T02:28:19.030Z,101508.34
2018-06-04T02:30:47.336Z,101499.49
2018-06-04T02:33:15.564Z,101504.25
2018-06-04T02:35:43.816Z,101494.33
2018-06-04T02:38:12.103Z,101501.51
2018-06-04T02:40:40.345Z,101498.29
2018-06-04T02:43:08.653Z,101497.47
2018-06-04T02:45:36.902Z,101498.78
2018-06-04T02:48:05.662Z,101494.63
2018-06-04T02:50:34.018Z,101487.75
2018-06-04T02:53:02.274Z,101491.28
2018-06-04T02:55:30.537Z,101499.00
2018-06-04T02:57:58.813Z,101485.20
2018-06-04T03:00:27.106Z,101482.70
2018-06-04T03:02:55.384Z,101482.12
2018-06-04T03:05:23.696Z,101484.52
2018-06-04T03:07:51.961Z,101486.67
2018-06-04T03:10:20.271Z,101488.17
2018-06-04T03:12:48.613Z,101481.23
2018-06-04T03:15:16.910Z,101477.17
2018-06-04T03:17:45.173Z,101470.23
2018-06-04T03:20:13.574Z,101476.31
2018-06-04T03:22:41.841Z,101475.67
2018-06-04T03:25:10.123Z,101478.50
2018-06-04T03:27:38.383Z,101474.09
2018-06-04T03:30:06.659Z,101478.80
2018-06-04T03:32:34.934Z,101479.48
2018-06-04T03:35:03.195Z,101470.93
2018-06-04T03:37:31.503Z,101476.25
2018-06-04T03:39:59.785Z,101476.92
2018-06-04T03:42:28.062Z,101468.88
2018-06-04T03:44:56.396Z,101469.33
2018-06-04T03:47:24.696Z,101476.52
2018-06-04T03:49:52.958Z,101469.48
2018-06-04T03:52:21.230Z,101466.67
2018-06-04T03:54:49.482Z,101472.69
2018-06-04T03:57:17.757Z,101469.55
2018-06-04T03:59:46.013Z,101467.18
2018-06-04T04:02:14.289Z,101460.23
2018-06-04T04:04:42.534Z,101459.80
2018-06-04T04:07:10.862Z,101460.58
2018-06-04T04:09:39.141Z,101462.11
2018-06-04T04:12:07.441Z,101458.43
2018-06-04T04:14:35.845Z,101457.11
2018-06-04T04:17:04.135Z,101459.63
2018-06-04T04:19:32.393Z,101445.38
2018-06-04T04:22:00.681Z,101452.44
2018-06-04T04:24:28.949Z,101456.68
2018-06-04T04:26:57.189Z,101456.25
2018-06-04T04:29:25.472Z,101457.27
2018-06-04T04:31:53.713Z,101451.97
2018-06-04T04:34:22.019Z,101454.64
2018-06-04T04:36:50.265Z,101450.26
2018-06-04T04:39:18.545Z,101456.00
2018-06-04T04:41:46.803Z,101444.83
2018-06-04T04:44:15.089Z,101444.22
2018-06-04T04:46:43.416Z,101446.17
2018-06-04T04:49:11.625Z,101448.14
2018-06-04T04:51:39.897Z,101444.58
2018-06-04T04:54:08.261Z,101444.53
2018-06-04T04:56:36.520Z,101441.98
2018-06-04T04:59:05.217Z,101441.67
2018-06-04T05:01:33.478Z,101442.22
2018-06-04T05:04:01.763Z,101436.34
2018-06-04T05:06:30.038Z,101443.09
2018-06-04T05:08:58.342Z,101436.23
2018-06-04T05:11:26.635Z,101430.29
2018-06-04T05:13:54.954Z,101432.27
2018-06-04T05:16:23.248Z,101423.29
2018-06-04T05:18:51.609Z,101428.34
2018-06-04T05:21:20.945Z,101431.59
2018-06-04T05:23:49.205Z,101433.73
2018-06-04T05:26:17.520Z,101433.37
2018-06-04T05:28:45.820Z,101431.95
2018-06-04T05:31:14.106Z,101434.13
2018-06-04T05:33:42.357Z,101438.02
2018-06-04T05:36:10.633Z,101428.75
2018-06-04T05:38:38.918Z,101416.25
2018-06-04T05:41:07.217Z,101416.55
2018-06-04T05:43:35.471Z,101424.33
2018-06-04T05:46:03.770Z,101426.01
2018-06-04T05:48:32.017Z,101422.89
2018-06-04T05:51:00.298Z,101422.89
2018-06-04T05:53:28.541Z,101425.83
2018-06-04T05:55:56.875Z,101420.25
2018-06-04T05:58:25.105Z,101430.56
2018-06-04T06:00:53.376Z,101424.69
2018-06-04T06:03:21.840Z,101426.36
2018-06-04T06:05:50.121Z,101430.12
2018-06-04T06:08:18.405Z,101429.58
2018-06-04T06:10:48.819Z,101419.46
2018-06-04T06:13:17.137Z,101424.39
2018-06-04T06:15:45.410Z,101424.59
2018-06-04T06:18:13.702Z,101425.00
2018-06-04T06:20:41.983Z,101409.00
2018-06-04T06:23:10.263Z,101421.27
2018-06-04T06:25:38.516Z,101410.98
2018-06-04T06:28:06.818Z,101412.44
2018-06-04T06:30:35.065Z,101417.98
2018-06-04T06:33:03.342Z,101415.27
2018-06-04T06:35:31.608Z,101419.84
2018-06-04T06:37:59.896Z,101406.68
2018-06-04T06:40:28.593Z,101413.31
2018-06-04T06:42:56.902Z,101414.97
2018-06-04T06:45:25.377Z,101409.89
2018-06-04T06:47:54.093Z,101409.18
2018-06-04T06:50:22.390Z,101406.80
2018-06-04T06:52:50.701Z,101403.88
2018-06-04T06:55:19.032Z,101408.80
2018-06-04T06:57:47.305Z,101414.59
2018-06-04T07:00:15.599Z,101414.15
2018-06-04T07:02:43.882Z,101410.73
2018-06-04T07:05:12.176Z,101410.53
2018-06-04T07:07:40.494Z,101411.05
2018-06-04T07:10:08.858Z,101420.10
2018-06-04T07:12:37.254Z,101414.86
2018-06-04T07:15:05.556Z,101408.69
2018-06-04T07:17:33.814Z,101413.31
2018-06-04T07:20:02.103Z,101419.05
2018-06-04T07:22:30.358Z,101424.50
2018-06-04T07:24:58.673Z,101416.95
2018-06-04T07:27:26.926Z,101430.25
2018-06-04T07:29:55.181Z,101425.80
2018-06-04T07:32:23.485Z,101420.09
2018-06-04T07:34:51.797Z,101427.45
2018-06-04T07:37:21.130Z,101434.05
2018-06-04T07:39:49.389Z,101431.34
2018-06-04T07:42:17.670Z,101438.24
2018-06-04T07:44:45.925Z,101437.22
2018-06-04T07:47:14.198Z,101441.62
2018-06-04T07:49:42.450Z,101434.61
2018-06-04T07:52:10.778Z,101436.97
2018-06-04T07:54:39.121Z,101427.08
2018-06-04T07:57:07.423Z,101432.50
2018-06-04T07:59:35.674Z,101426.13
2018-06-04T08:02:03.966Z,101421.66
2018-06-04T08:04:32.225Z,101430.69
2018-06-04T08:07:00.521Z,101424.58
2018-06-04T08:09:28.794Z,101426.23
2018-06-04T08:11:57.090Z,101425.92
2018-06-04T08:14:25.358Z,101430.73
2018-06-04T08:16:53.678Z,101434.38
2018-06-04T08:19:21.927Z,101427.48
2018-06-04T08:21:50.277Z,101435.48
2018-06-04T08:24:18.557Z,101429.35
2018-06-04T08:26:46.802Z,101429.94
2018-06-04T08:29:15.088Z,101437.34
2018-06-04T08:31:43.372Z,101429.63
2018-06-04T08:34:11.649Z,101426.28
2018-06-04T08:36:40.961Z,101421.40
2018-06-04T08:39:09.267Z,101417.73
2018-06-04T08:41:38.522Z,101420.74
2018-06-04T08:44:06.806Z,101425.20
2018-06-04T08:46:35.160Z,101423.98
2018-06-04T08:49:03.389Z,101421.29
2018-06-04T08:51:32.661Z,101428.05
2018-06-04T08:54:00.950Z,101425.12
2018-06-04T08:56:29.206Z,101419.31
2018-06-04T08:58:57.491Z,101420.08
2018-06-04T09:01:25.764Z,101409.48
2018-06-04T09:03:54.074Z,101411.31
2018-06-04T09:06:22.336Z,101406.42
2018-06-04T09:08:50.647Z,101404.73
2018-06-04T09:11:18.948Z,101415.07
2018-06-04T09:13:47.202Z,101404.73
2018-06-04T09:16:15.540Z,101409.11
2018-06-04T09:18:43.791Z,101404.60
2018-06-04T09:21:12.082Z,101405.73
2018-06-04T09:23:41.050Z,101405.80
2018-06-04T09:26:10.382Z,101404.11
2018-06-04T09:28:38.646Z,101408.99
2018-06-04T09:31:06.927Z,101414.85
2018-06-04T09:33:35.190Z,101406.48
2018-06-04T09:36:03.481Z,101407.61
2018-06-04T09:38:31.766Z,101403.86
2018-06-04T09:41:02.122Z,101408.00
2018-06-04T09:43:30.402Z,101407.23
2018-06-04T09:45:58.753Z,101407.45
2018-06-04T09:48:27.108Z,101399.50
2018-06-04T09:50:56.430Z,101400.88
2018-06-04T09:53:24.770Z,101404.97
2018-06-04T09:55:53.438Z,101405.72
2018-06-04T09:58:21.778Z,101402.32
2018-06-04T10:00:50.199Z,101400.91
2018-06-04T10:03:18.545Z,101404.68
2018-06-04T10:05:46.974Z,101396.63
2018-06-04T10:08:15.286Z,101390.59
2018-06-04T10:10:43.727Z,101384.98
2018-06-04T10:13:13.078Z,101384.19
2018-06-04T10:15:41.417Z,101379.77
2018-06-04T10:18:09.712Z,101373.45
2018-06-04T10:20:38.065Z,101380.23
2018-06-04T10:23:09.563Z,101375.92
2018-06-04T10:25:37.829Z,101368.48
2018-06-04T10:28:06.200Z,101378.14
2018-06-04T10:30:34.630Z,101361.94
2018-06-04T10:33:02.963Z,101364.88
2018-06-04T10:35:32.260Z,101365.84
2018-06-04T10:38:01.855Z,101353.66
2018-06-04T10:40:30.200Z,101355.58
2018-06-04T10:42:58.405Z,101357.95
2018-06-04T10:45:28.769Z,101359.41
2018-06-04T10:47:58.110Z,101349.68
2018-06-04T10:50:26.481Z,101355.20
2018-06-04T10:52:54.731Z,101345.97
2018-06-04T10:55:23.097Z,101347.96
2018-06-04T10:57:51.519Z,101341.69
2018-06-04T11:00:19.826Z,101348.95
2018-06-04T11:02:48.174Z,101342.11
2018-06-04T11:05:16.505Z,101334.88
2018-06-04T11:07:44.850Z,101325.08
2018-06-04T11:10:13.252Z,101323.55
2018-06-04T11:12:41.582Z,101317.33
2018-06-04T11:15:09.865Z,101325.33
2018-06-04T11:17:38.141Z,101317.73
2018-06-04T11:20:06.462Z,101319.81
2018-06-04T11:22:35.006Z,101325.84
2018-06-04T11:25:03.322Z,101317.28
2018-06-04T11:27:31.650Z,101324.97
2018-06-04T11:29:59.913Z,101312.27
2018-06-04T11:32:28.197Z,101313.60
2018-06-04T11:34:56.442Z,101322.38
2018-06-04T11:37:24.787Z,101312.19
2018-06-04T11:39:53.057Z,101310.23
2018-06-04T11:42:21.505Z,101317.24
2018-06-04T11:44:49.790Z,101311.55
2018-06-04T11:47:18.090Z,101321.93
2018-06-04T11:49:46.542Z,101325.98
2018-06-04T11:52:14.818Z,101313.44
2018-06-04T11:54:43.104Z,101313.14
2018-06-04T11:57:11.401Z,101298.42
2018-06-04T11:59:39.749Z,101309.42
2018-06-04T12:02:08.026Z,101307.07
2018-06-04T12:04:36.281Z,101306.04
2018-06-04T12:07:04.645Z,101304.64
2018-06-04T12:09:32.956Z,101301.17
2018-06-04T12:12:02.294Z,101296.09
2018-06-04T12:14:30.584Z,101296.03
2018-06-04T12:17:00.141Z,101298.71
2018-06-04T12:19:28.456Z,101302.20
2018-06-04T12:21:56.933Z,101292.92
2018-06-04T12:24:25.181Z,101290.02
2018-06-04T12:26:53.489Z,101292.73
2018-06-04T12:29:21.845Z,101296.67
2018-06-04T12:31:50.201Z,101288.13
2018-06-04T12:34:18.487Z,101285.59
2018-06-04T12:36:46.762Z,101285.95
2018-06-04T12:39:15.073Z,101286.71
2018-06-04T12:41:43.345Z,101292.21
2018-06-04T12:44:11.761Z,101283.61
2018-06-04T12:46:40.069Z,101281.48
2018-06-04T12:49:08.369Z,101277.43
2018-06-04T12:51:36.618Z,101274.61
2018-06-04T12:54:04.945Z,101279.75
2018-06-04T12:56:33.277Z,101279.09
2018-06-04T12:59:01.566Z,101281.73
2018-06-04T13:01:29.821Z,101285.45
2018-06-04T13:03:58.144Z,101247.29
2018-06-04T13:06:26.393Z,101268.62
2018-06-04T13:08:54.700Z,101275.00
2018-06-04T13:11:23.038Z,101267.20
2018-06-04T13:13:52.466Z,101262.44
2018-06-04T13:16:20.880Z,101266.28
2018-06-04T13:18:49.206Z,101269.30
2018-06-04T13:21:18.631Z,101273.20
2018-06-04T13:23:46.885Z,101269.02
2018-06-04T13:26:15.277Z,101275.14
2018-06-04T13:28:43.544Z,101270.11
2018-06-04T13:31:11.853Z,101257.09
2018-06-04T13:33:40.250Z,101264.77
2018-06-04T13:36:08.505Z,101273.11
2018-06-04T13:38:36.785Z,101257.86
2018-06-04T13:41:05.150Z,101262.48
2018-06-04T13:43:33.421Z,101272.02
2018-06-04T13:46:01.722Z,101262.35
2018-06-04T13:48:29.996Z,101260.06
2018-06-04T13:50:58.321Z,101246.36
2018-06-04T13:53:26.652Z,101257.27
2018-06-04T13:55:55.070Z,101257.27
2018-06-04T13:58:23.364Z,101250.86
2018-06-04T14:00:51.622Z,101249.17
2018-06-04T14:03:20.017Z,101247.02
2018-06-04T14:05:48.295Z,101250.97
2018-06-04T14:08:16.596Z,101250.16
2018-06-04T14:10:44.901Z,101241.61
2018-06-04T14:13:13.197Z,101240.34
2018-06-04T14:15:43.524Z,101238.86
2018-06-04T14:18:11.837Z,101231.84
2018-06-04T14:20:40.109Z,101240.41
2018-06-04T14:23:08.402Z,101238.63
2018-06-04T14:25:36.657Z,101249.03
2018-06-04T14:28:05.038Z,101239.05
2018-06-04T14:30:33.337Z,101245.11
2018-06-04T14:33:03.643Z,101244.98
2018-06-04T14:35:32.958Z,101240.78
2018-06-04T14:38:01.253Z,101259.77
2018-06-04T14:40:29.578Z,101255.13
2018-06-04T14:42:58.992Z,101244.59
2018-06-04T14:45:28.101Z,101229.63
2018-06-04T14:47:56.410Z,101226.64
2018-06-04T14:50:24.669Z,101225.78
2018-06-04T14:52:54.178Z,101234.02
2018-06-04T14:55:22.450Z,101228.62
2018-06-04T14:57:50.709Z,101233.77
2018-06-04T15:00:18.998Z,101251.27
2018-06-04T15:02:47.244Z,101233.43
2018-06-04T15:05:15.528Z,101231.01
2018-06-04T15:07:43.797Z,101233.39
2018-06-04T15:10:12.107Z,101249.17
2018-06-04T15:12:40.367Z,101243.37
2018-06-04T15:15:08.775Z,101243.17
2018-06-04T15:17:37.035Z,101256.66
2018-06-04T15:20:05.349Z,101255.86
2018-06-04T15:22:34.675Z,101253.20
2018-06-04T15:25:02.961Z,101244.25
2018-06-04T15:27:32.247Z,101247.97
2018-06-04T15:30:01.580Z,101243.04
2018-06-04T15:32:29.828Z,101247.66
2018-06-04T15:34:58.099Z,101238.73
2018-06-04T15:37:26.363Z,101233.59
2018-06-04T15:39:55.693Z,101227.28
2018-06-04T15:42:25.992Z,101234.92
2018-06-04T15:44:54.283Z,101226.37
2018-06-04T15:47:22.577Z,101231.78
2018-06-04T15:49:51.001Z,101226.91
2018-06-04T15:52:20.371Z,101232.56
2018-06-04T15:54:48.741Z,101226.74
2018-06-04T15:57:17.034Z,101230.45
2018-06-04T15:59:45.292Z,101218.44
2018-06-04T16:02:13.673Z,101221.83
2018-06-04T16:04:42.026Z,101217.58
2018-06-04T16:07:10.325Z,101218.91
2018-06-04T16:09:40.658Z,101217.39
2018-06-04T16:12:10.118Z,101226.60
2018-06-04T16:14:39.453Z,101228.96
2018-06-04T16:17:07.999Z,101226.22
2018-06-04T16:19:36.309Z,101217.88
2018-06-04T16:22:04.771Z,101210.02
2018-06-04T16:24:33.085Z,101213.20
2018-06-04T16:27:01.441Z,101198.38
2018-06-04T16:29:30.757Z,101210.48
2018-06-04T16:31:59.067Z,101230.00
2018-06-04T16:34:27.342Z,101228.86
2018-06-04T16:36:55.672Z,101217.42
2018-06-04T16:39:24.119Z,101203.53
2018-06-04T16:41:52.809Z,101191.86
2018-06-04T16:44:24.419Z,101196.80
2018-06-04T16:46:52.725Z,101194.58
2018-06-04T16:49:21.047Z,101211.48
2018-06-04T16:51:49.345Z,101209.41
2018-06-04T16:54:17.683Z,101208.38
2018-06-04T16:56:45.962Z,101205.28
2018-06-04T16:59:16.385Z,101196.63
2018-06-04T17:01:44.581Z,101208.38
2018-06-04T17:04:12.977Z,101198.23
2018-06-04T17:06:41.278Z,101194.41
2018-06-04T17:09:10.744Z,101197.43
2018-06-04T17:11:39.068Z,101201.20
2018-06-04T17:14:09.477Z,101199.95
2018-06-04T17:16:41.290Z,101191.32
2018-06-04T17:19:09.650Z,101193.72
2018-06-04T17:21:37.911Z,101195.27
2018-06-04T17:24:07.285Z,101192.98
2018-06-04T17:26:35.557Z,101195.36
2018-06-04T17:29:04.974Z,101187.94
2018-06-04T17:31:33.275Z,101187.62
2018-06-04T17:34:01.597Z,101190.80
2018-06-04T17:36:29.927Z,101187.47
2018-06-04T17:38:58.214Z,101191.68
2018-06-04T17:41:26.549Z,101179.93
2018-06-04T17:43:55.965Z,101185.92
2018-06-04T17:46:24.338Z,101178.41
2018-06-04T17:48:52.673Z,101178.27
2018-06-04T17:51:21.373Z,101179.11
2018-06-04T17:53:51.057Z,101176.03
2018-06-04T17:56:19.490Z,101170.34
2018-06-04T17:58:47.842Z,101170.88
2018-06-04T18:01:16.157Z,101165.79
2018-06-04T18:03:44.470Z,101169.41
2018-06-04T18:06:12.939Z,101166.30
2018-06-04T18:08:41.232Z,101165.39
2018-06-04T18:11:09.645Z,101168.40
2018-06-04T18:13:37.973Z,101173.11
2018-06-04T18:16:07.350Z,101172.22
2018-06-04T18:18:35.696Z,101170.45
2018-06-04T18:21:04.103Z,101175.48
2018-06-04T18:23:32.401Z,101167.61
2018-06-04T18:26:00.738Z,101174.00
2018-06-04T18:28:29.461Z,101176.08
2018-06-04T18:30:57.771Z,101166.20
2018-06-04T18:33:26.161Z,101167.68
2018-06-04T18:35:55.585Z,101171.45
2018-06-04T18:38:23.886Z,101182.31
2018-06-04T18:40:54.189Z,101181.39
2018-06-04T18:43:22.505Z,101182.30
2018-06-04T18:45:50.798Z,101176.72
2018-06-04T18:48:19.113Z,101178.49
2018-06-04T18:50:48.566Z,101173.17
2018-06-04T18:53:16.975Z,101182.96
2018-06-04T18:55:46.350Z,101187.16
2018-06-04T18:58:14.705Z,101182.86
2018-06-04T19:00:43.013Z,101182.17
2018-06-04T19:03:11.409Z,101180.38
2018-06-04T19:05:39.710Z,101186.02
2018-06-04T19:08:08.124Z,101185.87
2018-06-04T19:10:37.492Z,101194.20
2018-06-04T19:13:05.888Z,101189.39
2018-06-04T19:15:34.221Z,101186.41
2018-06-04T19:18:02.634Z,101182.76
2018-06-04T19:20:30.981Z,101181.80
2018-06-04T19:23:00.463Z,101178.30
2018-06-04T19:25:28.801Z,101181.44
2018-06-04T19:27:57.121Z,101182.95
2018-06-04T19:30:27.521Z,101177.32
2018-06-04T19:32:55.986Z,101181.80
2018-06-04T19:35:24.325Z,101186.03
2018-06-04T19:37:54.703Z,101184.38
2018-06-04T19:40:23.037Z,101186.34
2018-06-04T19:42:51.317Z,101197.92
2018-06-04T19:45:19.970Z,101192.14
2018-06-04T19:47:49.437Z,101196.64
2018-06-04T19:50:18.858Z,101196.28
2018-06-04T19:52:47.177Z,101198.07
2018-06-04T19:55:15.593Z,101197.93
2018-06-04T19:57:44.962Z,101202.19
2018-06-04T20:00:13.374Z,101200.84
2018-06-04T20:02:41.697Z,101197.83
2018-06-04T20:05:10.085Z,101206.60
2018-06-04T20:07:39.532Z,101203.09
2018-06-04T20:10:07.940Z,101208.69
2018-06-04T20:12:36.292Z,101214.90
2018-06-04T20:15:04.741Z,101217.55
2018-06-04T20:17:33.134Z,101217.98
2018-06-04T20:20:01.500Z,101214.52
2018-06-04T20:22:30.028Z,101212.50
2018-06-04T20:24:58.312Z,101215.06
2018-06-04T20:27:27.668Z,101216.72
2018-06-04T20:29:56.019Z,101210.43
2018-06-04T20:32:24.500Z,101210.97
2018-06-04T20:34:52.854Z,101209.28
2018-06-04T20:37:22.325Z,101217.33
2018-06-04T20:39:50.611Z,101209.10
2018-06-04T20:42:19.949Z,101215.66
2018-06-04T20:44:48.365Z,101213.97
2018-06-04T20:47:17.718Z,101206.78
2018-06-04T20:49:46.105Z,101213.03
2018-06-04T20:52:15.425Z,101213.41
2018-06-04T20:54:43.785Z,101215.58
2018-06-04T20:57:14.099Z,101222.23
2018-06-04T20:59:42.425Z,101218.88
2018-06-04T21:02:11.765Z,101220.79
2018-06-04T21:04:40.205Z,101217.09
2018-06-04T21:07:08.545Z,101218.24
2018-06-04T21:09:36.869Z,101227.28
2018-06-04T21:12:05.195Z,101233.14
2018-06-04T21:14:33.598Z,101235.98
2018-06-04T21:17:02.027Z,101230.53
2018-06-04T21:19:30.398Z,101231.05
2018-06-04T21:21:58.667Z,101235.97
2018-06-04T21:24:27.104Z,101230.97
2018-06-04T21:26:55.483Z,101233.66
2018-06-04T21:29:33.434Z,101237.90
2018-06-04T21:32:02.723Z,101238.21
2018-06-04T21:34:32.017Z,101237.05
2018-06-04T21:37:00.310Z,101241.62
2018-06-04T21:39:34.348Z,101239.26
2018-06-04T21:42:02.632Z,101239.17
2018-06-04T21:44:40.684Z,101238.74
2018-06-04T21:47:13.294Z,101238.68
2018-06-04T21:49:41.654Z,101243.49
2018-06-04T21:52:15.534Z,101248.16
2018-06-04T21:54:43.918Z,101242.23
2018-06-04T21:57:13.239Z,101249.41
2018-06-04T21:59:45.094Z,101251.05
2018-06-04T22:02:13.391Z,101246.98
2018-06-04T22:04:41.658Z,101252.69
2018-06-04T22:07:09.969Z,101245.83
2018-06-04T22:09:38.257Z,101249.59
2018-06-04T22:12:06.601Z,101253.48
2018-06-04T22:14:34.961Z,101247.59
2018-06-04T22:17:03.322Z,101251.55
2018-06-04T22:19:31.629Z,101249.63
2018-06-04T22:22:00.030Z,101252.53
2018-06-04T22:24:28.369Z,101256.00
2018-06-04T22:26:56.674Z,101256.45
2018-06-04T22:29:25.013Z,101257.16
2018-06-04T22:31:53.335Z,101257.94
2018-06-04T22:34:22.857Z,101257.16
2018-06-04T22:36:51.233Z,101263.28
2018-06-04T22:39:19.514Z,101255.94
2018-06-04T22:41:47.872Z,101258.56
2018-06-04T22:44:16.265Z,101266.48
2018-06-04T22:46:44.737Z,101264.52
2018-06-04T22:49:13.044Z,101267.58
2018-06-04T22:51:41.308Z,101263.33
2018-06-04T22:54:09.650Z,101266.63
2018-06-04T22:56:38.123Z,101271.30
2018-06-04T22:59:06.481Z,101272.22
2018-06-04T23:01:34.760Z,101276.52
2018-06-04T23:04:03.066Z,101276.56
2018-06-04T23:06:32.381Z,101283.36
2018-06-04T23:09:00.689Z,101285.02
2018-06-04T23:11:29.017Z,101291.27
2018-06-04T23:13:57.330Z,101286.00
2018-06-04T23:16:25.673Z,101285.72
2018-06-04T23:18:53.945Z,101283.72
2018-06-04T23:21:22.265Z,101277.77
2018-06-04T23:23:50.537Z,101276.25
2018-06-04T23:26:18.897Z,101275.76
2018-06-04T23:28:47.210Z,101278.25
2018-06-04T23:31:15.537Z,101273.67
2018-06-04T23:33:43.834Z,101279.02
2018-06-04T23:36:12.125Z,101284.83
2018-06-04T23:38:41.501Z,101281.86
2018-06-04T23:41:10.815Z,101283.80
2018-06-04T23:43:39.090Z,101288.84
2018-06-04T23:46:07.410Z,101289.67
2018-06-04T23:48:35.686Z,101293.38
2018-06-04T23:51:03.962Z,101296.62
2018-06-04T23:53:32.327Z,101295.86
2018-06-04T23:56:00.837Z,101297.09
2018-06-04T23:58:29.160Z,101303.77
